createdAt,value
2022-08-20T00:01:28.407Z,24.40
2022-08-20T00:06:28.411Z,26.30
2022-08-20T00:11:29.071Z,22.80
2022-08-20T00:16:28.282Z,21.50
2022-08-20T00:21:28.156Z,23.40
2022-08-20T00:26:28.161Z,25.40
2022-08-20T00:31:28.106Z,25.30
2022-08-20T00:36:30.043Z,24.70
2022-08-20T00:41:28.933Z,25.40
2022-08-20T00:46:28.129Z,27.60
2022-08-20T00:51:27.847Z,28.00
2022-08-20T00:56:27.774Z,31.30
2022-08-20T01:01:27.782Z,32.50
2022-08-20T01:06:27.714Z,35.00
2022-08-20T01:11:27.655Z,36.00
2022-08-20T01:16:28.172Z,38.10
2022-08-20T01:21:27.630Z,36.50
2022-08-20T01:26:27.447Z,38.90
2022-08-20T01:31:27.401Z,36.90
2022-08-20T01:36:27.364Z,35.70
2022-08-20T01:41:28.758Z,34.90
2022-08-20T01:46:27.235Z,32.60
2022-08-20T01:51:27.219Z,35.80
2022-08-20T01:56:27.126Z,36.10
2022-08-20T02:01:27.137Z,37.30
2022-08-20T02:06:27.031Z,32.90
2022-08-20T02:11:26.967Z,35.00
2022-08-20T02:16:26.910Z,36.20
2022-08-20T02:21:26.847Z,34.00
2022-08-20T02:26:26.815Z,35.30
2022-08-20T02:31:26.768Z,36.20
2022-08-20T02:36:26.688Z,37.60
2022-08-20T02:41:26.762Z,35.30
2022-08-20T02:46:26.632Z,36.90
2022-08-20T02:51:30.699Z,38.10
2022-08-20T02:56:26.501Z,36.30
2022-08-20T03:01:26.495Z,35.90
2022-08-20T03:06:26.384Z,36.60
2022-08-20T03:11:26.326Z,35.10
2022-08-20T03:16:26.259Z,35.60
2022-08-20T03:21:26.219Z,36.90
2022-08-20T03:26:26.249Z,37.60
2022-08-20T03:31:26.193Z,35.70
2022-08-20T03:36:28.288Z,39.20
2022-08-20T03:41:26.002Z,40.00
2022-08-20T03:46:25.941Z,41.30
2022-08-20T03:51:25.935Z,42.80
2022-08-20T03:56:25.834Z,44.00
2022-08-20T04:01:45.335Z,43.90
2022-08-20T04:06:26.701Z,44.30
2022-08-20T04:11:25.691Z,41.60
2022-08-20T04:16:25.646Z,40.80
2022-08-20T04:21:25.562Z,42.60
2022-08-20T04:26:25.483Z,36.30
2022-08-20T04:31:25.715Z,41.50
2022-08-20T04:36:25.372Z,40.30
2022-08-20T04:41:25.329Z,42.10
2022-08-20T04:46:25.281Z,42.00
2022-08-20T04:51:25.219Z,39.70
2022-08-20T04:56:25.154Z,38.60
2022-08-20T05:01:25.135Z,38.70
2022-08-20T05:06:25.147Z,38.50
2022-08-20T05:11:34.024Z,38.60
2022-08-20T05:16:26.058Z,37.20
2022-08-20T05:21:33.852Z,35.40
2022-08-20T05:26:24.823Z,36.70
2022-08-20T05:31:30.909Z,36.30
2022-08-20T05:36:26.396Z,35.90
2022-08-20T05:41:28.967Z,36.50
2022-08-20T05:46:25.767Z,32.90
2022-08-20T05:51:24.698Z,36.60
2022-08-20T05:56:26.917Z,38.40
2022-08-20T06:01:24.475Z,39.40
2022-08-20T06:06:46.140Z,25.70
2022-08-20T06:11:25.650Z,28.50
2022-08-20T06:16:24.418Z,27.30
2022-08-20T06:21:24.433Z,24.30
2022-08-20T06:26:29.954Z,20.70
2022-08-20T06:31:25.190Z,19.20
2022-08-20T06:36:24.181Z,21.20
2022-08-20T06:41:24.058Z,24.20
2022-08-20T06:46:24.975Z,22.10
2022-08-20T06:51:23.910Z,18.50
2022-08-20T06:56:23.991Z,20.20
2022-08-20T07:01:23.835Z,22.00
2022-08-20T07:06:23.746Z,20.40
2022-08-20T07:11:28.235Z,17.90
2022-08-20T07:16:23.661Z,17.70
2022-08-20T07:21:23.597Z,18.30
2022-08-20T07:26:23.551Z,18.70
2022-08-20T07:31:23.487Z,19.90
2022-08-20T07:36:23.453Z,21.70
2022-08-20T07:41:23.562Z,18.90
2022-08-20T07:46:23.371Z,18.00
2022-08-20T07:51:24.273Z,19.00
2022-08-20T07:56:23.263Z,24.50
2022-08-20T08:01:23.278Z,23.60
2022-08-20T08:06:29.408Z,24.10
2022-08-20T08:11:24.204Z,27.20
2022-08-20T08:16:23.122Z,29.40
2022-08-20T08:21:23.063Z,30.60
2022-08-20T08:26:22.896Z,31.30
2022-08-20T08:31:22.956Z,37.30
2022-08-20T08:36:22.784Z,48.00
2022-08-20T08:41:22.729Z,49.80
2022-08-20T08:46:26.877Z,52.90
2022-08-20T08:51:22.805Z,52.30
2022-08-20T08:56:22.575Z,55.40
2022-08-20T09:01:54.210Z,54.90
2022-08-20T09:06:23.547Z,55.50
2022-08-20T09:11:22.414Z,54.70
2022-08-20T09:16:22.361Z,54.10
2022-08-20T09:21:25.721Z,52.10
2022-08-20T09:26:22.384Z,44.10
2022-08-20T09:31:23.224Z,43.00
2022-08-20T09:36:31.490Z,42.10
2022-08-20T09:41:25.186Z,41.60
2022-08-20T09:46:26.962Z,39.90
2022-08-20T09:51:23.149Z,36.90
2022-08-20T09:56:21.947Z,38.80
2022-08-20T10:01:22.198Z,36.20
2022-08-20T10:06:22.019Z,35.10
2022-08-20T10:11:21.777Z,33.50
2022-08-20T10:16:22.177Z,30.40
2022-08-20T10:21:21.667Z,27.50
2022-08-20T10:26:21.621Z,28.00
2022-08-20T10:31:21.587Z,25.30
2022-08-20T10:36:21.607Z,25.20
2022-08-20T10:41:21.451Z,27.80
2022-08-20T10:46:21.444Z,25.20
2022-08-20T10:51:21.369Z,24.00
2022-08-20T10:56:22.293Z,21.00
2022-08-20T11:01:32.701Z,22.60
2022-08-20T11:06:23.350Z,23.00
2022-08-20T11:11:21.169Z,23.20
2022-08-20T11:16:21.097Z,21.80
2022-08-20T11:21:21.062Z,22.90
2022-08-20T11:26:20.991Z,19.90
2022-08-20T11:31:20.937Z,19.50
2022-08-20T11:36:20.883Z,18.90
2022-08-20T11:41:20.831Z,17.60
2022-08-20T11:46:23.426Z,16.40
2022-08-20T11:51:21.785Z,17.40
2022-08-20T11:56:20.743Z,15.00
2022-08-20T12:01:20.660Z,15.70
2022-08-20T12:06:20.577Z,14.30
2022-08-20T12:11:20.618Z,14.40
2022-08-20T12:16:20.469Z,14.00
2022-08-20T12:21:20.513Z,16.00
2022-08-20T12:26:20.383Z,13.50
2022-08-20T12:31:20.345Z,13.60
2022-08-20T12:36:20.324Z,12.30
2022-08-20T12:41:20.285Z,10.90
2022-08-20T12:46:20.219Z,12.10
2022-08-20T12:51:20.127Z,12.30
2022-08-20T12:56:20.071Z,11.40
2022-08-20T13:01:20.113Z,11.30
2022-08-20T13:06:20.066Z,11.70
2022-08-20T13:11:19.939Z,11.10
2022-08-20T13:16:19.897Z,11.70
2022-08-20T13:21:23.918Z,11.30
2022-08-20T13:26:19.950Z,9.70
2022-08-20T13:31:20.213Z,9.80
2022-08-20T13:36:20.880Z,9.50
2022-08-20T13:41:19.641Z,11.20
2022-08-20T13:46:19.608Z,10.20
2022-08-20T13:51:19.552Z,10.70
2022-08-20T13:56:19.706Z,9.50
2022-08-20T14:01:19.521Z,9.10
2022-08-20T14:06:19.469Z,8.30
2022-08-20T14:11:19.338Z,7.70
2022-08-20T14:16:25.490Z,8.30
2022-08-20T14:21:21.427Z,10.00
2022-08-20T14:26:19.322Z,8.90
2022-08-20T14:31:19.364Z,10.20
2022-08-20T14:36:19.099Z,9.60
2022-08-20T14:41:20.372Z,10.00
2022-08-20T14:46:19.145Z,11.10
2022-08-20T14:51:19.460Z,12.20
2022-08-20T14:56:18.896Z,13.20
2022-08-20T15:01:19.027Z,13.00
2022-08-20T15:06:22.254Z,12.20
2022-08-20T15:11:18.747Z,12.80
2022-08-20T15:16:18.729Z,11.30
2022-08-20T15:21:21.849Z,10.50
2022-08-20T15:26:18.691Z,9.80
2022-08-20T15:31:18.771Z,9.60
2022-08-20T15:36:18.650Z,9.20
2022-08-20T15:41:19.001Z,9.70
2022-08-20T15:46:18.682Z,9.50
2022-08-20T15:51:18.433Z,9.90
2022-08-20T15:56:18.435Z,9.10
2022-08-20T16:01:25.219Z,9.60
2022-08-20T16:06:19.337Z,8.10
2022-08-20T16:11:18.083Z,8.10
2022-08-20T16:16:18.014Z,8.80
2022-08-20T16:21:17.979Z,8.60
2022-08-20T16:26:18.996Z,8.00
2022-08-20T16:31:17.856Z,7.50
2022-08-20T16:36:17.792Z,7.50
2022-08-20T16:41:17.730Z,5.80
2022-08-20T16:46:17.734Z,6.30
2022-08-20T16:51:17.785Z,7.00
2022-08-20T16:56:17.746Z,5.50
2022-08-20T17:01:17.566Z,5.30
2022-08-20T17:06:17.519Z,5.10
2022-08-20T17:11:17.399Z,5.70
2022-08-20T17:16:17.502Z,5.00
2022-08-20T17:21:17.304Z,5.50
2022-08-20T17:26:17.265Z,7.40
2022-08-20T17:31:17.386Z,5.90
2022-08-20T17:36:17.348Z,5.20
2022-08-20T17:41:26.633Z,5.20
2022-08-20T17:46:17.112Z,5.10
2022-08-20T17:51:17.150Z,4.50
2022-08-20T17:56:17.036Z,3.90
2022-08-20T18:01:16.960Z,3.60
2022-08-20T18:06:16.895Z,4.00
2022-08-20T18:11:16.760Z,4.10
2022-08-20T18:16:16.934Z,3.80
2022-08-20T18:21:16.642Z,3.30
2022-08-20T18:26:16.637Z,3.50
2022-08-20T18:31:16.582Z,3.80
2022-08-20T18:36:16.496Z,4.50
2022-08-20T18:41:16.432Z,4.40
2022-08-20T18:46:16.387Z,4.30
2022-08-20T18:51:16.408Z,5.50
2022-08-20T18:56:16.451Z,4.80
2022-08-20T19:01:16.308Z,4.70
2022-08-20T19:06:16.123Z,4.60
2022-08-20T19:11:16.117Z,4.80
2022-08-20T19:16:16.055Z,5.30
2022-08-20T19:21:16.250Z,6.10
2022-08-20T19:26:25.861Z,5.80
2022-08-20T19:31:17.098Z,5.30
2022-08-20T19:36:15.821Z,6.40
2022-08-20T19:41:15.777Z,6.10
2022-08-20T19:46:16.771Z,6.50
2022-08-20T19:51:15.661Z,7.00
2022-08-20T19:56:15.631Z,7.00
2022-08-20T20:01:15.723Z,6.50
2022-08-20T20:06:17.303Z,6.60
2022-08-20T20:11:15.471Z,6.20
2022-08-20T20:16:15.517Z,6.80
2022-08-20T20:21:15.458Z,6.60
2022-08-20T20:26:15.712Z,7.80
2022-08-20T20:31:15.222Z,8.30
2022-08-20T20:36:15.392Z,7.60
2022-08-20T20:41:15.318Z,6.20
2022-08-20T20:46:15.272Z,6.60
2022-08-20T20:51:15.189Z,7.40
2022-08-20T20:56:15.030Z,6.50
2022-08-20T21:01:14.955Z,7.30
2022-08-20T21:06:14.848Z,8.20
2022-08-20T21:11:14.810Z,8.20
2022-08-20T21:16:15.048Z,9.40
2022-08-20T21:21:14.700Z,10.20
2022-08-20T21:26:14.666Z,10.50
2022-08-20T21:31:14.601Z,10.30
2022-08-20T21:36:14.567Z,10.10
2022-08-20T21:41:14.656Z,10.20
2022-08-20T21:46:14.458Z,10.10
2022-08-20T21:51:14.540Z,10.50
2022-08-20T21:56:14.362Z,11.20
2022-08-20T22:01:14.304Z,10.70
2022-08-20T22:06:14.242Z,11.10
2022-08-20T22:11:14.177Z,11.90
2022-08-20T22:16:14.211Z,10.50
2022-08-20T22:21:14.095Z,11.10
2022-08-20T22:26:14.033Z,11.30
2022-08-20T22:31:13.952Z,10.90
2022-08-20T22:36:13.884Z,10.50
2022-08-20T22:41:13.859Z,10.90
2022-08-20T22:46:13.934Z,10.70
2022-08-20T22:51:13.906Z,10.60
2022-08-20T22:56:19.870Z,11.40
2022-08-20T23:01:14.706Z,10.80
2022-08-20T23:06:13.627Z,10.50
2022-08-20T23:11:13.525Z,10.60
2022-08-20T23:16:13.462Z,10.10
2022-08-20T23:21:13.415Z,11.10
2022-08-20T23:26:13.458Z,10.50
2022-08-20T23:31:13.340Z,9.90
2022-08-20T23:36:13.268Z,8.70
2022-08-20T23:41:13.213Z,9.90
2022-08-20T23:50:57.163Z,10.00
2022-08-20T23:55:57.123Z,9.50
